Terminal Aerodrome Forecast
Issued by NWS

Home | Current Version | Previous Version | Text Only | Print | Product List | Glossary Off
Versions: 1 2 3 4 5 6 7 8 9 10 11 12 13 14 15 16 17 18 19

915
FTUS41 KCLE 220536
TAFFDY
TAF
KFDY 220536Z 2206/2306 VRB03KT 6SM BR VCSH SCT050 BKN100
      TEMPO 2207/2209 2SM BR BKN006
     FM220900 VRB03KT 2SM BR OVC006
      TEMPO 2210/2213 3/4SM BR OVC002
     FM221500 10005KT 6SM HZ BKN025
     FM221700 06005KT P6SM BKN050
     FM222300 05008KT P6SM -SHRA OVC025=

USA.gov is the U.S. government's official web portal to all federal, state and local government web resources and services.